createdAt,value
2018-07-22T00:01:40.716Z,33.70
2018-07-22T00:04:09.383Z,37.20
2018-07-22T00:06:38.120Z,24.50
2018-07-22T00:09:08.011Z,31.50
2018-07-22T00:11:36.262Z,29.20
2018-07-22T00:14:04.574Z,27.60
2018-07-22T00:16:33.050Z,27.60
2018-07-22T00:19:01.541Z,35.27
2018-07-22T00:21:29.703Z,33.53
2018-07-22T00:23:58.775Z,29.73
2018-07-22T00:26:27.243Z,33.43
2018-07-22T00:28:55.157Z,30.83
2018-07-22T00:31:22.907Z,31.67
2018-07-22T00:33:50.864Z,28.10
2018-07-22T00:36:19.576Z,31.20
2018-07-22T00:38:47.880Z,29.57
2018-07-22T00:41:15.778Z,30.60
2018-07-22T00:43:43.655Z,34.27
2018-07-22T00:46:12.088Z,32.20
2018-07-22T00:48:41.264Z,29.10
2018-07-22T00:51:09.253Z,32.73
2018-07-22T00:53:36.962Z,24.60
2018-07-22T00:56:05.444Z,22.70
2018-07-22T00:58:34.337Z,22.37
2018-07-22T01:01:02.258Z,21.77
2018-07-22T01:03:30.194Z,23.57
2018-07-22T01:05:58.096Z,22.77
2018-07-22T01:08:26.575Z,20.90
2018-07-22T01:10:54.962Z,20.60
2018-07-22T01:13:22.899Z,18.67
2018-07-22T01:15:51.340Z,16.70
2018-07-22T01:18:19.373Z,15.73
2018-07-22T01:20:47.300Z,17.23
2018-07-22T01:23:15.177Z,21.60
2018-07-22T01:25:43.088Z,18.50
2018-07-22T01:28:11.008Z,22.40
2018-07-22T01:30:39.585Z,17.73
2018-07-22T01:33:07.495Z,17.70
2018-07-22T01:35:36.047Z,18.43
2018-07-22T01:38:03.990Z,20.00
2018-07-22T01:40:31.873Z,19.10
2018-07-22T01:42:59.893Z,19.53
2018-07-22T01:45:27.792Z,18.37
2018-07-22T01:47:56.278Z,18.20
2018-07-22T01:50:24.243Z,21.30
2018-07-22T01:52:52.199Z,21.03
2018-07-22T01:55:20.075Z,16.80
2018-07-22T01:57:47.958Z,26.13
2018-07-22T02:00:16.909Z,17.97
2018-07-22T02:02:44.820Z,16.40
2018-07-22T02:05:12.723Z,15.67
2018-07-22T02:07:40.578Z,20.70
2018-07-22T02:10:08.506Z,21.50
2018-07-22T02:12:37.237Z,19.57
2018-07-22T02:15:05.819Z,16.40
2018-07-22T02:17:34.120Z,20.47
2018-07-22T02:20:02.561Z,18.13
2018-07-22T02:22:30.355Z,19.67
2018-07-22T02:24:58.706Z,17.70
2018-07-22T02:27:26.592Z,20.10
2018-07-22T02:29:54.565Z,15.97
2018-07-22T02:32:23.063Z,16.63
2018-07-22T02:34:52.413Z,15.80
2018-07-22T02:37:28.494Z,16.30
2018-07-22T02:39:57.128Z,13.70
2018-07-22T02:42:25.070Z,15.67
2018-07-22T02:44:53.020Z,15.53
2018-07-22T02:47:20.963Z,11.43
2018-07-22T02:49:49.846Z,12.90
2018-07-22T02:52:18.516Z,13.07
2018-07-22T02:54:46.435Z,17.80
2018-07-22T02:57:14.448Z,17.60
2018-07-22T02:59:43.027Z,15.80
2018-07-22T03:02:11.322Z,15.90
2018-07-22T03:04:39.918Z,15.13
2018-07-22T03:07:07.839Z,13.73
2018-07-22T03:09:35.603Z,19.83
2018-07-22T03:12:03.350Z,15.63
2018-07-22T03:14:31.098Z,18.07
2018-07-22T03:16:58.980Z,23.87
2018-07-22T03:19:26.842Z,14.40
2018-07-22T03:21:54.743Z,20.90
2018-07-22T03:24:22.652Z,16.40
2018-07-22T03:26:50.577Z,14.17
2018-07-22T03:29:19.157Z,15.30
2018-07-22T03:31:46.886Z,19.03
2018-07-22T03:34:14.869Z,16.57
2018-07-22T03:36:42.727Z,13.20
2018-07-22T03:39:11.414Z,17.07
2018-07-22T03:41:39.799Z,15.77
2018-07-22T03:44:07.997Z,20.10
2018-07-22T03:46:36.835Z,16.10
2018-07-22T03:49:05.064Z,18.43
2018-07-22T03:51:33.521Z,15.43
2018-07-22T03:54:01.444Z,18.60
2018-07-22T03:56:29.364Z,18.77
2018-07-22T03:58:57.089Z,24.13
2018-07-22T04:01:24.962Z,20.50
2018-07-22T04:03:53.387Z,18.23
2018-07-22T04:06:21.169Z,22.63
2018-07-22T04:08:49.592Z,18.93
2018-07-22T04:11:17.483Z,20.43
2018-07-22T04:13:45.468Z,21.50
2018-07-22T04:16:13.370Z,20.70
2018-07-22T04:18:51.453Z,28.03
2018-07-22T04:21:20.950Z,18.70
2018-07-22T04:23:49.037Z,20.80
2018-07-22T04:26:18.402Z,21.43
2018-07-22T04:28:47.027Z,17.70
2018-07-22T04:31:14.982Z,18.63
2018-07-22T04:33:42.870Z,18.23
2018-07-22T04:36:11.547Z,14.67
2018-07-22T04:38:40.406Z,17.63
2018-07-22T04:41:08.262Z,24.60
2018-07-22T04:43:36.180Z,20.50
2018-07-22T04:46:04.914Z,19.47
2018-07-22T04:48:32.819Z,20.43
2018-07-22T04:51:01.554Z,22.70
2018-07-22T04:53:30.019Z,17.63
2018-07-22T04:55:57.973Z,19.53
2018-07-22T04:58:27.134Z,18.30
2018-07-22T05:00:54.835Z,21.20
2018-07-22T05:03:22.717Z,18.80
2018-07-22T05:05:51.217Z,19.97
2018-07-22T05:08:19.225Z,17.57
2018-07-22T05:10:46.966Z,19.70
2018-07-22T05:13:14.871Z,27.73
2018-07-22T05:15:42.822Z,20.43
2018-07-22T05:18:10.607Z,20.53
2018-07-22T05:20:40.420Z,20.03
2018-07-22T05:23:09.090Z,17.30
2018-07-22T05:25:36.842Z,24.73
2018-07-22T05:28:04.881Z,22.40
2018-07-22T05:30:33.579Z,28.53
2018-07-22T05:33:01.440Z,24.43
2018-07-22T05:35:29.339Z,26.43
2018-07-22T05:37:57.098Z,22.60
2018-07-22T05:40:25.041Z,25.63
2018-07-22T05:42:54.313Z,22.57
2018-07-22T05:45:22.326Z,22.73
2018-07-22T05:47:50.921Z,27.67
2018-07-22T05:50:18.658Z,28.33
2018-07-22T05:52:46.553Z,28.50
2018-07-22T05:55:14.461Z,31.77
2018-07-22T05:57:42.385Z,27.57
2018-07-22T06:00:10.717Z,31.23
2018-07-22T06:02:41.036Z,30.70
2018-07-22T06:05:09.032Z,34.03
2018-07-22T06:07:36.926Z,32.57
2018-07-22T06:10:05.522Z,35.80
2018-07-22T06:12:34.107Z,33.77
2018-07-22T06:15:01.838Z,36.17
2018-07-22T06:17:30.253Z,34.87
2018-07-22T06:19:58.026Z,32.47
2018-07-22T06:22:25.949Z,36.57
2018-07-22T06:24:53.890Z,39.40
2018-07-22T06:27:22.995Z,35.60
2018-07-22T06:29:51.843Z,35.10
2018-07-22T06:32:20.465Z,36.07
2018-07-22T06:34:48.418Z,33.30
2018-07-22T06:37:17.055Z,36.27
2018-07-22T06:39:45.590Z,40.33
2018-07-22T06:42:13.836Z,35.23
2018-07-22T06:44:41.607Z,37.97
2018-07-22T06:47:09.591Z,36.93
2018-07-22T06:49:37.477Z,39.00
2018-07-22T06:52:05.414Z,37.73
2018-07-22T06:54:33.321Z,36.10
2018-07-22T06:57:01.244Z,35.50
2018-07-22T06:59:29.414Z,38.67
2018-07-22T07:01:57.147Z,38.03
2018-07-22T07:04:25.031Z,35.00
2018-07-22T07:06:52.771Z,36.40
2018-07-22T07:09:20.743Z,40.50
2018-07-22T07:11:48.660Z,45.50
2018-07-22T07:14:16.555Z,38.70
2018-07-22T07:16:45.083Z,42.07
2018-07-22T07:19:13.012Z,38.40
2018-07-22T07:21:40.981Z,37.43
2018-07-22T07:24:08.984Z,37.90
2018-07-22T07:26:37.125Z,37.73
2018-07-22T07:29:05.081Z,32.60
2018-07-22T07:31:33.737Z,35.03
2018-07-22T07:34:02.300Z,44.60
2018-07-22T07:36:30.696Z,41.43
2018-07-22T07:38:58.428Z,34.57
2018-07-22T07:41:26.466Z,40.27
2018-07-22T07:43:55.070Z,40.13
2018-07-22T07:46:22.987Z,35.63
2018-07-22T07:48:51.817Z,35.60
2018-07-22T07:51:20.805Z,38.20
2018-07-22T07:53:48.719Z,40.17
2018-07-22T07:56:17.038Z,38.30
2018-07-22T07:58:44.949Z,39.80
2018-07-22T08:01:14.182Z,39.90
2018-07-22T08:03:42.128Z,35.13
2018-07-22T08:06:10.301Z,36.53
2018-07-22T08:08:38.068Z,33.20
2018-07-22T08:11:05.843Z,32.70
2018-07-22T08:13:33.604Z,37.07
2018-07-22T08:16:01.550Z,34.27
2018-07-22T08:18:29.518Z,35.20
2018-07-22T08:20:58.057Z,34.60
2018-07-22T08:23:26.846Z,37.73
2018-07-22T08:25:55.518Z,31.10
2018-07-22T08:28:34.827Z,36.10
2018-07-22T08:31:02.775Z,30.63
2018-07-22T08:33:30.735Z,35.40
2018-07-22T08:35:58.670Z,31.73
2018-07-22T08:38:26.583Z,33.73
2018-07-22T08:40:54.587Z,32.63
2018-07-22T08:43:22.345Z,32.57
2018-07-22T08:45:50.147Z,32.50
2018-07-22T08:48:18.056Z,35.50
2018-07-22T08:50:45.959Z,33.90
2018-07-22T08:53:14.838Z,32.70
2018-07-22T08:55:43.467Z,31.93
2018-07-22T08:58:11.396Z,31.30
2018-07-22T09:00:39.806Z,31.90
2018-07-22T09:03:07.717Z,35.27
2018-07-22T09:05:36.558Z,39.43
2018-07-22T09:08:04.474Z,33.43
2018-07-22T09:10:32.534Z,34.40
2018-07-22T09:13:00.639Z,30.47
2018-07-22T09:15:28.385Z,36.13
2018-07-22T09:17:57.836Z,31.53
2018-07-22T09:20:26.381Z,34.60
2018-07-22T09:25:20.739Z,34.73
2018-07-22T09:27:49.255Z,32.50
2018-07-22T09:30:17.168Z,32.07
2018-07-22T09:32:45.126Z,43.60
2018-07-22T09:35:13.736Z,32.87
2018-07-22T09:37:42.360Z,37.27
2018-07-22T09:40:10.262Z,37.77
2018-07-22T09:42:38.189Z,38.70
2018-07-22T09:45:06.623Z,38.30
2018-07-22T09:47:35.295Z,41.03
2018-07-22T09:50:03.683Z,34.73
2018-07-22T09:52:31.631Z,36.50
2018-07-22T09:54:59.691Z,40.10
2018-07-22T09:57:27.654Z,43.70
2018-07-22T09:59:56.255Z,41.40
2018-07-22T10:02:24.220Z,36.10
2018-07-22T10:04:52.223Z,37.07
2018-07-22T10:07:21.132Z,35.83
2018-07-22T10:09:49.123Z,36.93
2018-07-22T10:12:17.788Z,43.20
2018-07-22T10:14:46.373Z,41.13
2018-07-22T10:17:15.688Z,39.77
2018-07-22T10:19:43.599Z,41.30
2018-07-22T10:22:11.569Z,39.40
2018-07-22T10:24:40.667Z,47.77
2018-07-22T10:27:09.710Z,39.67
2018-07-22T10:29:37.661Z,41.00
2018-07-22T10:32:05.891Z,40.37
2018-07-22T10:34:34.177Z,38.73
2018-07-22T10:37:02.143Z,41.40
2018-07-22T10:39:30.080Z,38.00
2018-07-22T10:41:59.129Z,42.50
2018-07-22T10:44:27.845Z,39.63
2018-07-22T10:46:57.101Z,39.60
2018-07-22T10:49:25.008Z,40.00
2018-07-22T10:51:52.935Z,39.10
2018-07-22T10:54:20.665Z,33.90
2018-07-22T10:56:48.539Z,39.60
2018-07-22T10:59:16.736Z,39.83
2018-07-22T11:01:44.586Z,39.47
2018-07-22T11:04:12.359Z,37.20
2018-07-22T11:06:40.126Z,40.97
2018-07-22T11:09:08.702Z,38.63
2018-07-22T11:11:37.386Z,40.47
2018-07-22T11:14:05.333Z,44.80
2018-07-22T11:16:33.235Z,40.50
2018-07-22T11:19:02.122Z,44.93
2018-07-22T11:21:30.924Z,45.33
2018-07-22T11:23:58.837Z,47.37
2018-07-22T11:26:27.451Z,41.43
2018-07-22T11:28:55.444Z,43.80
2018-07-22T11:31:23.282Z,42.77
2018-07-22T11:33:51.228Z,46.20
2018-07-22T11:36:19.200Z,40.33
2018-07-22T11:38:47.109Z,44.00
2018-07-22T11:41:15.452Z,42.23
2018-07-22T11:43:43.718Z,44.47
2018-07-22T11:46:12.212Z,44.70
2018-07-22T11:48:40.207Z,44.30
2018-07-22T11:51:08.685Z,44.90
2018-07-22T11:53:36.608Z,43.27
2018-07-22T11:56:04.577Z,42.47
2018-07-22T11:58:32.501Z,40.53
2018-07-22T12:01:00.479Z,40.50
2018-07-22T12:03:28.237Z,42.23
2018-07-22T12:05:56.224Z,53.13
2018-07-22T12:08:24.792Z,43.00
2018-07-22T12:10:52.679Z,45.87
2018-07-22T12:13:21.278Z,41.73
2018-07-22T12:15:49.206Z,45.93
2018-07-22T12:18:17.516Z,42.70
2018-07-22T12:20:46.063Z,54.43
2018-07-22T12:23:14.025Z,47.77
2018-07-22T12:25:42.503Z,40.40
2018-07-22T12:28:11.343Z,46.07
2018-07-22T12:30:39.401Z,49.03
2018-07-22T12:33:07.827Z,42.30
2018-07-22T12:35:35.715Z,40.60
2018-07-22T12:38:03.539Z,43.67
2018-07-22T12:40:32.497Z,55.10
2018-07-22T12:43:00.236Z,45.43
2018-07-22T12:45:28.121Z,49.13
2018-07-22T12:47:56.078Z,45.83
2018-07-22T12:50:25.955Z,54.20
2018-07-22T12:52:54.912Z,50.63
2018-07-22T12:55:24.182Z,45.17
2018-07-22T12:57:52.132Z,44.93
2018-07-22T13:00:20.032Z,44.87
2018-07-22T13:02:48.528Z,39.10
2018-07-22T13:05:23.077Z,50.37
2018-07-22T13:07:51.045Z,53.23
2018-07-22T13:10:19.083Z,43.80
2018-07-22T13:12:47.015Z,42.67
2018-07-22T13:15:15.544Z,43.83
2018-07-22T13:17:44.196Z,44.13
2018-07-22T13:20:12.740Z,46.23
2018-07-22T13:22:41.537Z,44.60
2018-07-22T13:25:09.474Z,47.13
2018-07-22T13:27:37.427Z,57.37
2018-07-22T13:30:06.599Z,45.93
2018-07-22T13:32:35.106Z,47.80
2018-07-22T13:35:03.799Z,45.70
2018-07-22T13:37:32.226Z,41.40
2018-07-22T13:40:00.125Z,41.33
2018-07-22T13:42:28.699Z,42.13
2018-07-22T13:44:56.632Z,38.87
2018-07-22T13:47:24.535Z,44.60
2018-07-22T13:49:53.967Z,40.90
2018-07-22T13:52:21.719Z,33.07
2018-07-22T13:54:49.646Z,42.13
2018-07-22T13:57:18.321Z,39.93
2018-07-22T13:59:46.243Z,34.63
2018-07-22T14:02:14.001Z,36.30
2018-07-22T14:04:41.948Z,40.60
2018-07-22T14:07:09.872Z,30.97
2018-07-22T14:09:37.761Z,37.73
2018-07-22T14:12:05.813Z,37.60
2018-07-22T14:14:34.333Z,31.07
2018-07-22T14:17:02.981Z,37.50
2018-07-22T14:19:31.451Z,31.83
2018-07-22T14:22:00.863Z,33.73
2018-07-22T14:24:29.950Z,35.83
2018-07-22T14:26:57.678Z,37.70
2018-07-22T14:29:26.060Z,32.80
2018-07-22T14:31:53.998Z,33.90
2018-07-22T14:34:23.978Z,34.83
2018-07-22T14:36:51.893Z,41.07
2018-07-22T14:39:19.951Z,33.83
2018-07-22T14:41:47.863Z,32.07
2018-07-22T14:44:16.239Z,27.17
2018-07-22T14:46:45.523Z,38.67
2018-07-22T14:49:13.392Z,32.83
2018-07-22T14:51:41.382Z,33.70
2018-07-22T14:54:09.160Z,40.57
2018-07-22T14:56:38.357Z,31.00
2018-07-22T14:59:07.989Z,29.20
2018-07-22T15:01:35.907Z,30.50
2018-07-22T15:04:04.572Z,38.43
2018-07-22T15:06:32.632Z,28.60
2018-07-22T15:09:00.696Z,33.97
2018-07-22T15:11:28.628Z,31.23
2018-07-22T15:13:56.659Z,29.50
2018-07-22T15:16:24.604Z,32.20
2018-07-22T15:18:53.051Z,37.43
2018-07-22T15:21:20.981Z,27.93
2018-07-22T15:23:48.884Z,34.10
2018-07-22T15:26:19.605Z,32.40
2018-07-22T15:28:47.363Z,30.30
2018-07-22T15:31:16.011Z,27.60
2018-07-22T15:33:44.572Z,31.70
2018-07-22T15:36:13.096Z,29.93
2018-07-22T15:38:41.317Z,32.43
2018-07-22T15:41:09.024Z,26.43
2018-07-22T15:43:37.064Z,28.97
2018-07-22T15:46:06.104Z,29.63
2018-07-22T15:48:34.559Z,32.10
2018-07-22T15:51:02.486Z,26.90
2018-07-22T15:53:30.230Z,31.53
2018-07-22T15:55:58.811Z,30.50
2018-07-22T15:58:27.445Z,31.27
2018-07-22T16:00:55.344Z,28.77
2018-07-22T16:03:23.278Z,26.80
2018-07-22T16:05:51.953Z,24.93
2018-07-22T16:08:21.184Z,27.43
2018-07-22T16:10:51.285Z,29.40
2018-07-22T16:13:19.334Z,26.40
2018-07-22T16:15:47.128Z,27.63
2018-07-22T16:18:15.037Z,27.00
2018-07-22T16:20:43.897Z,35.73
2018-07-22T16:23:11.969Z,43.33
2018-07-22T16:25:39.883Z,46.83
2018-07-22T16:28:07.636Z,48.97
2018-07-22T16:30:36.866Z,36.50
2018-07-22T16:33:04.867Z,41.00
2018-07-22T16:35:33.446Z,34.57
2018-07-22T16:38:02.920Z,32.53
2018-07-22T16:40:30.836Z,36.00
2018-07-22T16:42:59.758Z,35.77
2018-07-22T16:45:29.017Z,34.60
2018-07-22T16:47:56.944Z,37.47
2018-07-22T16:50:24.860Z,38.23
2018-07-22T16:52:53.382Z,34.13
2018-07-22T16:55:21.248Z,33.93
2018-07-22T16:57:51.318Z,31.13
2018-07-22T17:00:20.157Z,31.40
2018-07-22T17:02:48.567Z,40.03
2018-07-22T17:05:18.050Z,47.13
2018-07-22T17:07:46.234Z,32.47
2018-07-22T17:10:13.958Z,49.73
2018-07-22T17:12:43.156Z,43.07
2018-07-22T17:15:11.122Z,39.53
2018-07-22T17:17:39.704Z,39.50
2018-07-22T17:20:07.618Z,33.57
2018-07-22T17:22:36.071Z,32.30
2018-07-22T17:25:04.016Z,27.57
2018-07-22T17:27:31.921Z,27.20
2018-07-22T17:30:00.569Z,30.47
2018-07-22T17:32:28.743Z,33.13
2018-07-22T17:34:56.972Z,33.40
2018-07-22T17:37:25.445Z,33.27
2018-07-22T17:39:53.581Z,31.53
2018-07-22T17:42:22.148Z,30.50
2018-07-22T17:44:50.073Z,34.80
2018-07-22T17:47:19.303Z,29.73
2018-07-22T17:49:47.712Z,32.27
2018-07-22T17:52:17.370Z,37.37
2018-07-22T17:54:45.278Z,37.83
2018-07-22T17:57:13.830Z,30.77
2018-07-22T17:59:41.798Z,43.03
2018-07-22T18:02:09.793Z,44.03
2018-07-22T18:04:37.721Z,41.20
2018-07-22T18:07:05.475Z,42.67
2018-07-22T18:09:33.815Z,39.83
2018-07-22T18:12:04.146Z,44.73
2018-07-22T18:14:32.375Z,36.27
2018-07-22T18:17:00.320Z,46.10
2018-07-22T18:19:29.273Z,39.40
2018-07-22T18:21:57.764Z,42.87
2018-07-22T18:24:25.756Z,43.73
2018-07-22T18:26:54.204Z,46.50
2018-07-22T18:29:22.120Z,40.27
2018-07-22T18:31:49.855Z,48.43
2018-07-22T18:34:17.790Z,43.57
2018-07-22T18:36:46.423Z,53.87
2018-07-22T18:39:14.319Z,44.20
2018-07-22T18:41:42.729Z,45.50
2018-07-22T18:44:10.637Z,45.20
2018-07-22T18:46:40.120Z,74.57
2018-07-22T18:49:08.134Z,69.33
2018-07-22T18:51:35.933Z,46.33
2018-07-22T18:54:04.884Z,50.90
2018-07-22T18:56:32.699Z,65.00
2018-07-22T18:59:00.665Z,40.43
2018-07-22T19:01:28.732Z,43.50
2018-07-22T19:03:57.984Z,43.10
2018-07-22T19:06:27.108Z,38.37
2018-07-22T19:08:56.139Z,44.67
2018-07-22T19:11:24.031Z,41.07
2018-07-22T19:13:51.821Z,41.13
2018-07-22T19:16:20.315Z,44.73
2018-07-22T19:18:48.767Z,38.43
2018-07-22T19:21:17.508Z,36.87
2018-07-22T19:23:46.000Z,44.77
2018-07-22T19:26:15.148Z,46.03
2018-07-22T19:28:42.881Z,38.80
2018-07-22T19:31:12.022Z,36.60
2018-07-22T19:33:39.909Z,44.00
2018-07-22T19:36:07.841Z,43.20
2018-07-22T19:38:35.628Z,53.97
2018-07-22T19:41:06.437Z,41.87
2018-07-22T19:43:34.183Z,42.03
2018-07-22T19:46:01.963Z,39.23
2018-07-22T19:48:30.440Z,39.23
2018-07-22T19:50:58.776Z,48.80
2018-07-22T19:53:28.319Z,48.57
2018-07-22T19:55:56.728Z,48.00
2018-07-22T19:58:24.681Z,47.63
2018-07-22T20:00:53.609Z,44.93
2018-07-22T20:03:21.658Z,47.00
2018-07-22T20:05:51.196Z,44.07
2018-07-22T20:08:21.388Z,47.93
2018-07-22T20:10:49.503Z,51.87
2018-07-22T20:13:18.343Z,48.70
2018-07-22T20:15:48.508Z,42.60
2018-07-22T20:18:17.690Z,38.20
2018-07-22T20:20:45.995Z,38.50
2018-07-22T20:23:13.951Z,50.97
2018-07-22T20:25:43.288Z,64.53
2018-07-22T20:28:11.084Z,47.93
2018-07-22T20:30:39.031Z,44.00
2018-07-22T20:33:08.143Z,45.40
2018-07-22T20:35:36.129Z,54.57
2018-07-22T20:38:05.559Z,50.37
2018-07-22T20:40:34.212Z,61.07
2018-07-22T20:43:02.131Z,50.17
2018-07-22T20:45:29.900Z,59.57
2018-07-22T20:47:58.459Z,56.33
2018-07-22T20:50:26.333Z,46.33
2018-07-22T20:52:55.191Z,53.33
2018-07-22T20:55:24.162Z,46.83
2018-07-22T20:57:52.703Z,49.43
2018-07-22T21:00:20.674Z,57.23
2018-07-22T21:02:48.590Z,43.53
2018-07-22T21:05:17.225Z,49.47
2018-07-22T21:07:45.140Z,51.83
2018-07-22T21:10:14.225Z,46.70
2018-07-22T21:12:51.208Z,39.93
2018-07-22T21:15:19.327Z,55.17
2018-07-22T21:17:48.342Z,50.77
2018-07-22T21:20:18.591Z,49.67
2018-07-22T21:22:47.143Z,35.87
2018-07-22T21:25:15.561Z,52.47
2018-07-22T21:27:44.363Z,44.43
2018-07-22T21:30:12.795Z,43.37
2018-07-22T21:32:41.003Z,52.23
2018-07-22T21:35:09.799Z,42.40
2018-07-22T21:37:38.675Z,59.43
2018-07-22T21:40:06.541Z,54.60
2018-07-22T21:42:34.463Z,34.20
2018-07-22T21:45:03.932Z,47.23
2018-07-22T21:47:31.861Z,40.17
2018-07-22T21:49:59.790Z,39.67
2018-07-22T21:52:28.405Z,37.10
2018-07-22T21:54:56.417Z,33.03
2018-07-22T21:57:24.428Z,34.10
2018-07-22T21:59:52.957Z,34.30
2018-07-22T22:02:20.924Z,28.73
2018-07-22T22:04:48.937Z,29.10
2018-07-22T22:07:16.852Z,27.27
2018-07-22T22:09:45.393Z,26.43
2018-07-22T22:12:13.904Z,27.80
2018-07-22T22:14:41.729Z,25.87
2018-07-22T22:17:09.617Z,36.00
2018-07-22T22:19:38.147Z,23.50
2018-07-22T22:22:06.896Z,26.47
2018-07-22T22:24:35.479Z,25.00
2018-07-22T22:27:04.546Z,23.83
2018-07-22T22:29:32.439Z,30.10
2018-07-22T22:32:00.337Z,36.83
2018-07-22T22:34:29.496Z,34.43
2018-07-22T22:36:57.387Z,31.90
2018-07-22T22:39:26.582Z,38.40
2018-07-22T22:41:54.542Z,32.80
2018-07-22T22:44:23.091Z,29.23
2018-07-22T22:46:51.571Z,31.67
2018-07-22T22:49:20.129Z,30.77
2018-07-22T22:51:48.731Z,36.23
2018-07-22T22:54:16.960Z,39.37
2018-07-22T22:56:45.424Z,41.37
2018-07-22T22:59:17.029Z,34.17
2018-07-22T23:01:45.110Z,34.60
2018-07-22T23:04:13.781Z,35.33
2018-07-22T23:06:42.305Z,30.30
2018-07-22T23:09:11.966Z,36.53
2018-07-22T23:11:40.330Z,34.43
2018-07-22T23:14:09.003Z,34.40
2018-07-22T23:16:38.219Z,29.57
2018-07-22T23:19:06.123Z,33.40
2018-07-22T23:21:34.393Z,40.10
2018-07-22T23:24:02.779Z,34.77
2018-07-22T23:26:31.266Z,32.17
2018-07-22T23:28:59.526Z,39.90
2018-07-22T23:31:27.266Z,38.43
2018-07-22T23:33:55.749Z,34.90
2018-07-22T23:36:24.424Z,63.43
2018-07-22T23:38:52.300Z,45.10
2018-07-22T23:41:20.603Z,32.70
2018-07-22T23:43:48.374Z,35.80
2018-07-22T23:46:16.905Z,28.50
2018-07-22T23:48:44.908Z,34.70
2018-07-22T23:51:13.919Z,34.20
2018-07-22T23:53:42.320Z,34.17
2018-07-22T23:56:11.090Z,43.60
2018-07-22T23:58:39.675Z,32.97
